Time;durP1;ratioP1;P1;durP2;ratioP2;P2;SDS_P1;SDS_P2;PMS_P1;PMS_P2;Temp;Humidity;BMP_temperature;BMP_pressure;BME280_temperature;BME280_humidity;BME280_pressure;Samples;Min_cycle;Max_cycle;Signal;HPM_P1;HPM_P2
2023/07/24 00:01:07;;;;;;;3.30;3.00;;;21.20;99.90;;;;;;5079551;28;20443;-62
2023/07/24 00:03:34;;;;;;;3.50;2.50;;;21.30;99.90;;;;;;5096478;28;20493;-62
2023/07/24 00:06:01;;;;;;;4.37;2.70;;;21.20;99.90;;;;;;5109916;28;20473;-60
2023/07/24 00:08:28;;;;;;;4.57;2.70;;;;;;;;;;5117359;28;20467;-63
2023/07/24 00:10:59;;;;;;;10.60;2.80;;;21.10;99.90;;;;;;5117068;28;20422;-59
2023/07/24 00:13:27;;;;;;;4.00;2.93;;;21.20;99.90;;;;;;5117681;28;20426;-61
2023/07/24 00:15:54;;;;;;;3.47;2.50;;;21.10;99.90;;;;;;5117837;28;20488;-59
2023/07/24 00:18:20;;;;;;;3.67;2.67;;;21.30;99.90;;;;;;5116588;28;20448;-61
2023/07/24 00:20:47;;;;;;;3.83;2.83;;;21.30;99.90;;;;;;5116036;28;20476;-55
2023/07/24 00:23:16;;;;;;;5.07;2.77;;;21.10;99.90;;;;;;5116208;28;20465;-57
2023/07/24 00:25:43;;;;;;;3.20;2.90;;;21.10;99.90;;;;;;5115752;28;20457;-59
2023/07/24 00:28:13;;;;;;;2.70;2.20;;;21.10;99.90;;;;;;5116064;28;20464;-60
2023/07/24 00:30:41;;;;;;;4.53;3.00;;;21.30;99.90;;;;;;5116448;28;20442;-59
2023/07/24 00:33:08;;;;;;;6.40;2.30;;;21.20;99.90;;;;;;5117163;28;20446;-57
2023/07/24 00:35:35;;;;;;;4.70;3.00;;;21.00;99.90;;;;;;5116926;28;20523;-63
2023/07/24 00:38:02;;;;;;;4.30;3.13;;;21.20;99.90;;;;;;5117186;28;20488;-56
2023/07/24 00:40:28;;;;;;;3.60;2.10;;;21.30;99.90;;;;;;5100133;28;20469;-62
2023/07/24 00:42:56;;;;;;;3.50;2.20;;;;;;;;;;5095598;28;20475;-62
2023/07/24 00:45:23;;;;;;;3.00;2.17;;;;;;;;;;5095768;28;20529;-61
2023/07/24 00:47:52;;;;;;;6.40;2.87;;;21.00;99.90;;;;;;5095564;28;20561;-63
2023/07/24 00:50:19;;;;;;;4.80;3.07;;;;;;;;;;5095603;28;20451;-61
2023/07/24 00:52:46;;;;;;;4.33;2.40;;;21.10;99.90;;;;;;5098693;28;20485;-61
2023/07/24 00:55:16;;;;;;;6.10;3.07;;;21.10;99.90;;;;;;5104940;28;20516;-62
2023/07/24 00:57:43;;;;;;;5.50;2.60;;;;;;;;;;5095429;28;20520;-63
2023/07/24 01:00:11;;;;;;;3.50;2.30;;;21.00;99.90;;;;;;5095032;28;20552;-62
2023/07/24 01:02:39;;;;;;;3.73;2.43;;;21.10;99.90;;;;;;5106547;28;20473;-62
2023/07/24 01:05:08;;;;;;;3.17;2.60;;;21.10;99.90;;;;;;5112607;28;20466;-62
2023/07/24 01:07:35;;;;;;;4.27;2.43;;;21.00;99.90;;;;;;5113357;28;20468;-59
2023/07/24 01:10:02;;;;;;;3.30;2.50;;;;;;;;;;5116768;28;20426;-59
2023/07/24 01:12:39;;;;;;;5.63;2.50;;;20.90;99.90;;;;;;5116432;28;20434;-57
2023/07/24 01:15:12;;;;;;;4.63;3.07;;;20.60;99.90;;;;;;5116099;28;20473;-62
2023/07/24 01:17:44;;;;;;;3.97;2.57;;;20.90;99.90;;;;;;5095628;28;20885;-61
2023/07/24 01:20:14;;;;;;;5.40;3.20;;;20.80;99.90;;;;;;5094130;28;20493;-63
2023/07/24 01:22:53;;;;;;;4.90;3.20;;;20.80;99.90;;;;;;5096699;28;20482;-60
2023/07/24 01:25:32;;;;;;;4.73;2.90;;;20.70;99.90;;;;;;5115750;28;20435;-58
2023/07/24 01:28:00;;;;;;;3.80;2.80;;;20.80;99.90;;;;;;5095297;28;20471;-62
2023/07/24 01:30:27;;;;;;;5.77;3.20;;;20.80;99.90;;;;;;5094809;28;20536;-61
2023/07/24 01:32:54;;;;;;;8.70;3.20;;;20.80;99.90;;;;;;5100266;28;20484;-64
2023/07/24 01:35:21;;;;;;;12.30;7.50;;;20.80;99.90;;;;;;5106822;28;20465;-64
2023/07/24 01:37:50;;;;;;;12.63;8.30;;;20.70;99.90;;;;;;5099785;28;20811;-61
2023/07/24 01:40:17;;;;;;;8.63;4.83;;;;;;;;;;5114142;28;20506;-60
2023/07/24 01:42:44;;;;;;;6.80;4.20;;;20.70;99.90;;;;;;5114800;28;20449;-61
2023/07/24 01:45:12;;;;;;;4.30;2.87;;;20.90;99.90;;;;;;5094515;28;21001;-62
2023/07/24 01:47:39;;;;;;;3.73;3.07;;;20.80;99.90;;;;;;5094317;28;20445;-62
2023/07/24 01:50:10;;;;;;;5.53;3.27;;;20.80;99.90;;;;;;5094490;28;20470;-62
2023/07/24 01:52:37;;;;;;;6.33;3.47;;;20.80;99.90;;;;;;5096566;28;20464;-63
2023/07/24 01:55:04;;;;;;;6.07;3.03;;;20.90;99.90;;;;;;5101302;28;20477;-64
2023/07/24 01:57:36;;;;;;;3.57;2.77;;;20.70;99.90;;;;;;5109205;28;20461;-62
2023/07/24 02:00:07;;;;;;;5.57;3.20;;;20.80;99.90;;;;;;5115123;28;20468;-56
2023/07/24 02:02:35;;;;;;;3.30;2.67;;;20.70;99.90;;;;;;5096265;28;20556;-63
2023/07/24 02:05:04;;;;;;;3.40;2.63;;;20.70;99.90;;;;;;5114537;28;20438;-60
2023/07/24 02:07:32;;;;;;;4.57;3.23;;;;;;;;;;5115237;28;20457;-63
2023/07/24 02:09:58;;;;;;;8.30;3.00;;;20.60;99.90;;;;;;5115219;28;20463;-57
2023/07/24 02:12:25;;;;;;;2.90;2.30;;;20.60;99.90;;;;;;5115539;28;20452;-60
2023/07/24 02:14:53;;;;;;;5.90;3.10;;;21.10;99.90;;;;;;5114944;28;20436;-62
2023/07/24 02:17:20;;;;;;;3.80;2.60;;;20.70;99.90;;;;;;5106831;28;20449;-62
2023/07/24 02:19:48;;;;;;;6.10;2.80;;;20.50;99.90;;;;;;5099350;28;21097;-56
2023/07/24 02:22:16;;;;;;;3.90;2.70;;;20.70;99.90;;;;;;5114914;28;20425;-63
2023/07/24 02:24:43;;;;;;;3.60;2.80;;;;;;;;;;5114288;28;20460;-56
2023/07/24 02:27:14;;;;;;;4.53;3.40;;;20.80;99.90;;;;;;5115181;28;20442;-58
2023/07/24 02:29:41;;;;;;;3.60;2.33;;;20.60;99.90;;;;;;5094656;28;20477;-62
2023/07/24 02:32:08;;;;;;;4.30;2.77;;;20.80;99.90;;;;;;5093614;28;20536;-61
2023/07/24 02:34:38;;;;;;;3.13;2.77;;;20.80;99.90;;;;;;5101267;28;20484;-50
2023/07/24 02:37:06;;;;;;;3.00;2.63;;;20.80;99.90;;;;;;5117387;28;20406;-57
2023/07/24 02:39:33;;;;;;;3.60;2.77;;;20.50;99.90;;;;;;5114922;28;20442;-59
2023/07/24 02:42:00;;;;;;;3.60;2.37;;;20.70;99.90;;;;;;5115136;28;20473;-58
2023/07/24 02:44:27;;;;;;;2.50;2.30;;;20.90;99.90;;;;;;5115343;28;20457;-57
2023/07/24 02:46:54;;;;;;;4.73;2.70;;;20.80;99.90;;;;;;5114323;28;20468;-60
2023/07/24 02:49:21;;;;;;;3.87;2.30;;;20.80;99.90;;;;;;5113953;28;20441;-60
2023/07/24 02:51:50;;;;;;;7.03;2.00;;;;;;;;;;5113469;28;20524;-55
2023/07/24 02:54:20;;;;;;;2.93;2.17;;;20.60;99.90;;;;;;5116961;28;20426;-60
2023/07/24 02:56:49;;;;;;;4.43;3.00;;;20.60;99.90;;;;;;5118217;28;20453;-60
2023/07/24 02:59:16;;;;;;;2.80;2.10;;;20.60;99.90;;;;;;5118782;28;20504;-59
2023/07/24 03:01:43;;;;;;;3.07;2.37;;;21.20;99.90;;;;;;5118642;28;20441;-60
2023/07/24 03:04:09;;;;;;;3.30;2.30;;;20.80;99.90;;;;;;5118025;28;20509;-59
2023/07/24 03:06:36;;;;;;;3.00;2.00;;;20.70;99.90;;;;;;5116930;28;20475;-61
2023/07/24 03:09:03;;;;;;;3.10;2.70;;;20.70;99.90;;;;;;5118715;28;20468;-62
2023/07/24 03:11:32;;;;;;;4.70;2.30;;;20.30;99.90;;;;;;5118912;28;20456;-58
2023/07/24 03:13:59;;;;;;;2.93;2.20;;;;;;;;;;5117977;28;20468;-59
2023/07/24 03:16:26;;;;;;;2.10;1.90;;;;;;;;;;5117715;28;20492;-61
2023/07/24 03:18:54;;;;;;;2.77;2.07;;;;;;;;;;5097939;28;20437;-63
2023/07/24 03:21:21;;;;;;;2.23;2.03;;;20.70;99.90;;;;;;5088000;28;20532;-57
2023/07/24 03:23:48;;;;;;;4.90;2.80;;;;;;;;;;5097658;28;20466;-58
2023/07/24 03:26:16;;;;;;;4.67;2.00;;;;;;;;;;5097199;28;20465;-58
2023/07/24 03:28:50;;;;;;;3.00;2.00;;;20.70;99.90;;;;;;5098315;28;20458;-60
2023/07/24 03:31:17;;;;;;;2.90;1.63;;;20.60;99.90;;;;;;5097046;28;20422;-56
2023/07/24 03:33:44;;;;;;;3.20;1.80;;;21.30;99.90;;;;;;5101216;28;20487;-61
2023/07/24 03:36:11;;;;;;;2.90;1.97;;;;;;;;;;5096863;28;20880;-61
2023/07/24 03:38:38;;;;;;;3.67;2.87;;;20.90;99.90;;;;;;5098970;28;20465;-59
2023/07/24 03:41:05;;;;;;;6.43;2.80;;;20.70;99.90;;;;;;5115360;28;20477;-56
2023/07/24 03:43:32;;;;;;;4.33;2.10;;;;;;;;;;5117489;28;20465;-57
2023/07/24 03:46:01;;;;;;;4.40;2.80;;;20.90;99.90;;;;;;5117222;28;20414;-59
2023/07/24 03:48:27;;;;;;;2.50;1.80;;;21.00;99.90;;;;;;5118588;28;20503;-60
2023/07/24 03:50:59;;;;;;;2.60;1.73;;;20.70;99.90;;;;;;5117409;28;20426;-59
2023/07/24 03:53:26;;;;;;;6.00;1.83;;;20.60;99.90;;;;;;5116980;28;20515;-61
2023/07/24 03:55:53;;;;;;;3.07;2.27;;;;;;;;;;5116517;28;20481;-61
2023/07/24 03:58:21;;;;;;;2.70;1.77;;;20.90;99.90;;;;;;5116578;28;20448;-59
2023/07/24 04:00:47;;;;;;;2.50;2.13;;;20.90;99.90;;;;;;5116474;28;20472;-62
2023/07/24 04:03:16;;;;;;;4.27;1.80;;;20.90;99.90;;;;;;5106746;28;20501;-61
2023/07/24 04:05:44;;;;;;;2.40;2.00;;;;;;;;;;5094891;28;21167;-60
2023/07/24 04:08:13;;;;;;;2.03;1.50;;;20.60;99.90;;;;;;5105819;28;20436;-61
2023/07/24 04:10:40;;;;;;;3.53;1.93;;;20.60;99.90;;;;;;5115714;28;20476;-58
2023/07/24 04:13:09;;;;;;;1.83;1.67;;;20.30;99.90;;;;;;5117397;28;20448;-62
2023/07/24 04:15:38;;;;;;;6.87;2.30;;;20.50;99.90;;;;;;5116027;28;20484;-59
2023/07/24 04:18:05;;;;;;;3.63;1.57;;;;;;;;;;5097253;28;20441;-60
2023/07/24 04:20:33;;;;;;;2.60;2.13;;;20.40;99.90;;;;;;5097389;28;20932;-62
2023/07/24 04:23:00;;;;;;;5.33;2.20;;;20.60;99.90;;;;;;5097428;28;20556;-62
2023/07/24 04:25:27;;;;;;;3.00;1.83;;;20.50;99.90;;;;;;5099251;28;20442;-63
2023/07/24 04:27:56;;;;;;;3.20;1.70;;;21.10;99.90;;;;;;5114652;28;20691;-62
2023/07/24 04:30:23;;;;;;;2.30;1.70;;;;;;;;;;5117319;28;20465;-61
2023/07/24 04:32:52;;;;;;;2.00;1.63;;;20.90;99.90;;;;;;5116938;28;20457;-61
2023/07/24 04:35:19;;;;;;;2.10;1.87;;;21.00;99.90;;;;;;5117286;28;20453;-60
2023/07/24 04:37:47;;;;;;;2.80;2.20;;;20.60;99.90;;;;;;5116001;28;20441;-61
2023/07/24 04:40:14;;;;;;;6.30;3.73;;;;;;;;;;5095597;28;20560;-60
2023/07/24 04:42:41;;;;;;;1.67;1.57;;;20.90;99.90;;;;;;5103064;28;20517;-62
2023/07/24 04:45:09;;;;;;;2.50;1.83;;;20.70;99.90;;;;;;5095939;28;20565;-61
2023/07/24 04:47:36;;;;;;;2.00;1.80;;;20.70;99.90;;;;;;5115700;28;20461;-54
2023/07/24 04:50:03;;;;;;;4.17;1.80;;;20.80;99.90;;;;;;5116248;28;20453;-60
2023/07/24 04:52:30;;;;;;;3.03;1.23;;;20.90;99.90;;;;;;5115780;28;20453;-60
2023/07/24 04:54:58;;;;;;;3.13;1.53;;;21.10;99.90;;;;;;5115999;28;20465;-61
2023/07/24 04:57:25;;;;;;;1.93;1.43;;;20.70;99.90;;;;;;5115524;28;20545;-59
2023/07/24 04:59:52;;;;;;;2.73;2.00;;;20.80;99.90;;;;;;5115137;28;20461;-61
2023/07/24 05:02:21;;;;;;;3.17;1.60;;;21.40;99.90;;;;;;5115507;28;20466;-60
2023/07/24 05:04:48;;;;;;;2.80;1.60;;;21.00;99.90;;;;;;5097709;28;20468;-61
2023/07/24 05:07:15;;;;;;;2.30;1.80;;;21.00;99.90;;;;;;5095192;28;20473;-62
2023/07/24 05:09:41;;;;;;;2.00;1.40;;;21.10;99.90;;;;;;5095933;28;20461;-62
2023/07/24 05:12:10;;;;;;;2.20;1.60;;;21.30;99.90;;;;;;5097405;28;20512;-63
2023/07/24 05:14:36;;;;;;;1.97;1.73;;;21.20;99.90;;;;;;5103566;28;20493;-61
2023/07/24 05:17:04;;;;;;;1.70;1.50;;;21.30;99.90;;;;;;5100606;28;20960;-63
2023/07/24 05:19:31;;;;;;;3.43;1.77;;;21.60;99.90;;;;;;5106290;28;20480;-60
2023/07/24 05:21:59;;;;;;;3.73;1.80;;;21.60;99.90;;;;;;5110931;28;20530;-60
2023/07/24 05:24:25;;;;;;;1.80;1.23;;;21.80;99.90;;;;;;5105748;28;20461;-62
2023/07/24 05:26:52;;;;;;;2.37;1.17;;;21.40;99.90;;;;;;5108779;28;20528;-61
2023/07/24 05:29:21;;;;;;;1.77;1.10;;;21.90;99.90;;;;;;5102062;28;20516;-62
2023/07/24 05:31:48;;;;;;;2.17;1.40;;;21.90;99.90;;;;;;5109353;28;20437;-62
2023/07/24 05:34:15;;;;;;;1.90;1.47;;;;;;;;;;5112733;28;20462;-55
2023/07/24 05:36:42;;;;;;;2.13;1.20;;;22.00;99.90;;;;;;5104318;28;20481;-62
2023/07/24 05:39:09;;;;;;;1.83;1.40;;;22.00;99.90;;;;;;5102073;28;20560;-63
2023/07/24 05:41:36;;;;;;;3.87;1.30;;;21.40;99.90;;;;;;5095395;28;20552;-61
2023/07/24 05:44:03;;;;;;;2.50;1.97;;;22.00;99.90;;;;;;5104132;28;20441;-62
2023/07/24 05:46:31;;;;;;;2.20;1.40;;;21.80;99.90;;;;;;5103557;28;20509;-59
2023/07/24 05:49:00;;;;;;;1.67;1.47;;;;;;;;;;5101569;28;20517;-62
2023/07/24 05:51:27;;;;;;;2.13;1.33;;;22.10;99.90;;;;;;5110764;28;20445;-62
2023/07/24 05:53:54;;;;;;;2.03;1.23;;;21.90;99.90;;;;;;5103701;28;20493;-61
2023/07/24 05:56:21;;;;;;;2.77;1.50;;;21.90;99.90;;;;;;5100957;28;20563;-61
2023/07/24 05:58:48;;;;;;;3.27;1.73;;;;;;;;;;5111413;28;20461;-59
2023/07/24 06:01:15;;;;;;;1.70;1.57;;;;;;;;;;5105902;28;20469;-60
2023/07/24 06:03:43;;;;;;;2.43;1.77;;;21.90;99.90;;;;;;5100489;28;20525;-62
2023/07/24 06:06:10;;;;;;;2.00;1.77;;;;;;;;;;5086050;28;20515;-61
2023/07/24 06:08:39;;;;;;;2.60;1.67;;;22.00;99.90;;;;;;5081396;28;20474;-60
2023/07/24 06:11:06;;;;;;;2.40;2.17;;;22.30;99.90;;;;;;5083331;28;20526;-60
2023/07/24 06:13:33;;;;;;;2.23;1.57;;;22.20;99.90;;;;;;5084562;28;20443;-58
2023/07/24 06:16:00;;;;;;;2.50;1.73;;;22.20;99.90;;;;;;5106417;28;20536;-64
2023/07/24 06:18:27;;;;;;;4.80;1.90;;;21.80;99.90;;;;;;5110399;28;20465;-62
2023/07/24 06:20:55;;;;;;;1.90;1.60;;;22.20;99.90;;;;;;5113975;28;20453;-61
2023/07/24 06:23:22;;;;;;;3.27;1.63;;;22.30;99.90;;;;;;5095859;28;20508;-59
2023/07/24 06:25:51;;;;;;;3.23;2.43;;;;;;;;;;5094544;28;20521;-62
2023/07/24 06:28:18;;;;;;;2.67;1.80;;;22.20;99.90;;;;;;5097001;28;20442;-57
2023/07/24 06:30:47;;;;;;;6.23;1.93;;;22.40;99.90;;;;;;5107112;28;20489;-62
2023/07/24 06:33:14;;;;;;;2.20;2.00;;;;;;;;;;5098402;28;20514;-61
2023/07/24 06:35:41;;;;;;;2.47;2.27;;;22.40;99.90;;;;;;5112361;28;20484;-58
2023/07/24 06:38:09;;;;;;;4.53;2.30;;;21.90;99.90;;;;;;5106681;28;20473;-60
2023/07/24 06:40:36;;;;;;;2.97;2.30;;;;;;;;;;5105277;28;20437;-57
2023/07/24 06:43:03;;;;;;;2.80;2.10;;;22.50;99.90;;;;;;5105479;28;20464;-56
2023/07/24 06:45:30;;;;;;;2.77;2.33;;;22.70;99.90;;;;;;5118034;28;20471;-61
2023/07/24 06:47:57;;;;;;;2.53;2.03;;;22.70;99.90;;;;;;5111687;28;20438;-57
2023/07/24 06:50:24;;;;;;;2.70;2.30;;;22.60;99.90;;;;;;5118599;28;20465;-56
2023/07/24 06:52:54;;;;;;;2.80;2.27;;;22.60;99.90;;;;;;5118487;28;20426;-60
2023/07/24 06:55:23;;;;;;;1.97;1.67;;;22.70;99.90;;;;;;5117936;28;20440;-60
2023/07/24 06:57:50;;;;;;;3.03;2.67;;;22.70;99.90;;;;;;5118124;28;20517;-57
2023/07/24 07:00:17;;;;;;;2.13;1.67;;;22.60;99.90;;;;;;5117011;28;20504;-58
2023/07/24 07:02:44;;;;;;;5.73;2.30;;;23.00;99.90;;;;;;5118829;28;20521;-59
2023/07/24 07:05:11;;;;;;;3.80;2.27;;;22.70;99.90;;;;;;5118979;28;20484;-57
2023/07/24 07:07:39;;;;;;;2.80;2.30;;;23.20;99.90;;;;;;5118057;28;20486;-54
2023/07/24 07:10:07;;;;;;;7.13;2.23;;;23.40;99.90;;;;;;5107948;28;20500;-59
2023/07/24 07:12:35;;;;;;;2.77;2.33;;;23.30;99.90;;;;;;5118465;28;20462;-57
2023/07/24 07:15:02;;;;;;;2.60;1.97;;;23.50;99.90;;;;;;5118548;28;20473;-55
2023/07/24 07:17:29;;;;;;;3.63;2.20;;;;;;;;;;5117117;28;20473;-60
2023/07/24 07:19:58;;;;;;;3.10;2.30;;;23.60;99.90;;;;;;5117909;28;20498;-61
2023/07/24 07:22:25;;;;;;;2.67;2.13;;;24.00;99.90;;;;;;5118016;28;20462;-57
2023/07/24 07:24:52;;;;;;;3.00;2.13;;;24.10;99.90;;;;;;5115980;28;20437;-55
2023/07/24 07:27:19;;;;;;;2.90;2.17;;;26.00;99.90;;;;;;5097243;28;20443;-58
2023/07/24 07:29:47;;;;;;;3.17;2.33;;;27.40;99.90;;;;;;5096970;28;20470;-47
2023/07/24 07:32:14;;;;;;;2.20;2.00;;;28.60;99.90;;;;;;5097697;28;20445;-54
2023/07/24 07:34:41;;;;;;;2.23;2.00;;;29.00;99.90;;;;;;5097441;28;20476;-56
2023/07/24 07:37:08;;;;;;;5.13;2.40;;;29.80;99.90;;;;;;5096503;28;20458;-57
2023/07/24 07:39:36;;;;;;;3.00;2.70;;;29.80;98.80;;;;;;5108990;28;20434;-61
2023/07/24 07:42:02;;;;;;;2.90;2.03;;;30.40;96.60;;;;;;5117545;28;20481;-62
2023/07/24 07:44:30;;;;;;;4.40;1.73;;;;;;;;;;5117343;28;20434;-57
2023/07/24 07:46:58;;;;;;;2.47;2.23;;;31.50;86.60;;;;;;5117446;28;20422;-55
2023/07/24 07:49:27;;;;;;;2.70;2.13;;;31.70;99.90;;;;;;5117799;28;20453;-55
2023/07/24 07:51:53;;;;;;;2.63;1.90;;;31.80;99.90;;;;;;5114740;28;20449;-63
2023/07/24 07:54:20;;;;;;;2.17;1.80;;;31.90;85.20;;;;;;5099489;28;20560;-63
2023/07/24 07:56:47;;;;;;;2.70;2.43;;;31.90;99.80;;;;;;5116880;28;20505;-63
2023/07/24 07:59:14;;;;;;;2.27;2.07;;;32.10;80.50;;;;;;5112807;28;20445;-63
2023/07/24 08:01:42;;;;;;;2.70;1.93;;;32.50;78.00;;;;;;5116884;28;20498;-61
2023/07/24 08:04:10;;;;;;;3.83;2.70;;;32.30;96.90;;;;;;5117487;28;20440;-62
2023/07/24 08:06:42;;;;;;;2.30;1.70;;;32.00;76.10;;;;;;5117657;28;20457;-58
2023/07/24 08:09:09;;;;;;;2.90;2.30;;;31.80;94.00;;;;;;5108598;28;20448;-68
2023/07/24 08:11:35;;;;;;;5.33;2.70;;;31.90;77.70;;;;;;5095759;28;20473;-70
2023/07/24 08:14:02;;;;;;;3.70;2.17;;;30.50;99.20;;;;;;5103020;28;20506;-65
2023/07/24 08:16:29;;;;;;;3.30;2.17;;;30.50;99.00;;;;;;5117384;28;20453;-60
2023/07/24 08:18:56;;;;;;;2.10;1.83;;;30.40;99.10;;;;;;5115020;28;20473;-58
2023/07/24 08:21:26;;;;;;;1.80;1.50;;;30.40;80.00;;;;;;5112527;28;20525;-65
2023/07/24 08:23:53;;;;;;;2.53;1.80;;;30.80;99.90;;;;;;5112794;28;20465;-65
2023/07/24 08:26:20;;;;;;;2.10;1.90;;;31.60;96.20;;;;;;5097713;28;20451;-68
2023/07/24 08:28:47;;;;;;;2.80;2.27;;;31.60;98.10;;;;;;5095925;28;20532;-68
2023/07/24 08:31:14;;;;;;;2.97;2.20;;;31.50;77.20;;;;;;5117980;28;20472;-54
2023/07/24 08:33:40;;;;;;;3.17;2.10;;;31.60;93.80;;;;;;5104057;28;20437;-66
2023/07/24 08:36:08;;;;;;;2.50;1.97;;;31.20;82.00;;;;;;5096857;28;20456;-66
2023/07/24 08:38:37;;;;;;;2.00;1.80;;;30.70;98.30;;;;;;5096322;28;20481;-69
2023/07/24 08:41:05;;;;;;;2.40;1.43;;;30.20;99.40;;;;;;5097673;28;20965;-70
2023/07/24 08:43:33;;;;;;;2.57;2.30;;;;;;;;;;5097205;28;20549;-67
2023/07/24 08:46:01;;;;;;;2.80;2.00;;;28.90;83.30;;;;;;5098925;28;20971;-68
2023/07/24 08:48:33;;;;;;;3.00;1.97;;;28.30;83.70;;;;;;5098866;28;20517;-70
2023/07/24 08:51:00;;;;;;;1.87;1.60;;;27.80;90.30;;;;;;5099639;28;20453;-67
2023/07/24 08:53:29;;;;;;;2.43;1.70;;;27.90;99.90;;;;;;5096852;28;20453;-62
2023/07/24 08:56:00;;;;;;;3.57;2.43;;;28.20;91.50;;;;;;5106439;28;20538;-69
2023/07/24 08:58:27;;;;;;;4.73;2.50;;;28.90;99.90;;;;;;5116508;28;20484;-59
2023/07/24 09:00:54;;;;;;;2.77;2.00;;;;;;;;;;5115529;28;20425;-67
2023/07/24 09:03:21;;;;;;;2.30;1.87;;;29.20;99.90;;;;;;5114221;28;20445;-68
2023/07/24 09:05:49;;;;;;;2.70;1.80;;;29.40;87.80;;;;;;5094777;28;20969;-67
2023/07/24 09:08:16;;;;;;;2.43;1.90;;;29.30;99.90;;;;;;5097527;28;20505;-66
2023/07/24 09:10:43;;;;;;;3.17;2.10;;;;;;;;;;5102360;28;20760;-65
2023/07/24 09:13:13;;;;;;;5.50;2.17;;;30.20;98.40;;;;;;5110035;28;20429;-63
2023/07/24 09:15:43;;;;;;;6.07;2.47;;;30.40;97.50;;;;;;5110441;28;20454;-66
2023/07/24 09:18:10;;;;;;;2.13;1.93;;;;;;;;;;5102471;28;20569;-68
2023/07/24 09:20:41;;;;;;;3.27;2.30;;;30.00;99.90;;;;;;5110061;28;20996;-68
2023/07/24 09:23:09;;;;;;;2.13;1.80;;;30.20;85.10;;;;;;5105692;28;20461;-58
2023/07/24 09:25:37;;;;;;;6.03;1.93;;;31.20;99.90;;;;;;5079580;28;20517;-63
2023/07/24 09:28:12;;;;;;;3.00;1.90;;;31.30;99.80;;;;;;5081700;28;20923;-65
2023/07/24 09:30:39;;;;;;;2.50;1.77;;;;;;;;;;5087100;28;20482;-63
2023/07/24 09:33:07;;;;;;;3.17;2.83;;;31.70;98.70;;;;;;5083380;28;20442;-63
2023/07/24 09:35:34;;;;;;;8.23;6.40;;;31.80;98.30;;;;;;5080184;28;20446;-63
2023/07/24 09:38:06;;;;;;;5.40;3.67;;;32.10;96.50;;;;;;5073960;28;20486;-62
2023/07/24 09:40:41;;;;;;;2.00;1.80;;;33.00;93.60;;;;;;5095408;28;20537;-65
2023/07/24 09:43:19;;;;;;;2.43;1.80;;;32.30;96.50;;;;;;5098398;28;20980;-63
2023/07/24 09:45:49;;;;;;;4.57;3.10;;;31.70;73.20;;;;;;5105447;28;20433;-62
2023/07/24 09:48:22;;;;;;;2.20;1.83;;;31.60;74.20;;;;;;5095318;28;20455;-63
2023/07/24 09:50:50;;;;;;;2.50;2.20;;;31.80;74.80;;;;;;5094567;28;20430;-62
2023/07/24 09:53:21;;;;;;;3.80;1.50;;;32.60;94.30;;;;;;5096951;28;20434;-63
2023/07/24 09:55:53;;;;;;;2.73;2.53;;;33.00;93.20;;;;;;5110998;28;20513;-62
2023/07/24 09:58:23;;;;;;;2.83;2.10;;;33.00;91.40;;;;;;5106826;28;20479;-63
2023/07/24 10:00:50;;;;;;;2.67;2.07;;;33.00;94.30;;;;;;5100132;28;20473;-63
2023/07/24 10:03:17;;;;;;;2.30;1.90;;;32.60;91.20;;;;;;5099036;28;20509;-64
2023/07/24 10:05:48;;;;;;;3.77;2.87;;;33.10;67.40;;;;;;5104242;28;20548;-64
2023/07/24 10:08:16;;;;;;;8.03;4.33;;;33.30;93.00;;;;;;5096165;28;20432;-62
2023/07/24 10:10:43;;;;;;;7.00;5.40;;;34.00;90.20;;;;;;5075576;28;20554;-63
2023/07/24 10:13:13;;;;;;;3.03;2.73;;;33.20;93.20;;;;;;5079536;28;20525;-64
2023/07/24 10:15:46;;;;;;;3.90;2.30;;;33.40;63.60;;;;;;5079655;28;20447;-65
2023/07/24 10:18:13;;;;;;;3.10;2.40;;;;;;;;;;5078206;28;20482;-62
2023/07/24 10:20:41;;;;;;;3.20;2.60;;;33.60;89.30;;;;;;5076695;28;20458;-64
2023/07/24 10:23:11;;;;;;;3.43;2.67;;;33.90;62.70;;;;;;5087351;28;20474;-61
2023/07/24 10:25:40;;;;;;;3.53;2.40;;;34.10;61.40;;;;;;5089399;28;20490;-64
2023/07/24 10:28:10;;;;;;;3.10;2.43;;;34.00;92.20;;;;;;5090121;28;20438;-63
2023/07/24 10:30:38;;;;;;;4.13;2.40;;;33.90;91.60;;;;;;5088935;28;20441;-64
2023/07/24 10:33:08;;;;;;;3.27;2.20;;;33.90;92.00;;;;;;5089305;28;20438;-65
2023/07/24 10:35:39;;;;;;;3.13;2.63;;;33.30;84.90;;;;;;5084678;28;20463;-60
2023/07/24 10:38:06;;;;;;;4.40;2.80;;;;;;;;;;5080025;28;20529;-62
2023/07/24 10:40:34;;;;;;;5.60;2.30;;;32.30;61.70;;;;;;5102841;28;20497;-59
2023/07/24 10:43:05;;;;;;;2.77;2.17;;;32.30;91.40;;;;;;5106650;28;20441;-60
2023/07/24 10:45:49;;;;;;;3.40;2.40;;;32.20;66.00;;;;;;5098592;28;20520;-62
2023/07/24 10:48:18;;;;;;;3.40;2.47;;;32.40;74.80;;;;;;5105434;28;20445;-63
2023/07/24 10:50:46;;;;;;;4.63;3.17;;;31.50;93.00;;;;;;5106077;28;20937;-61
2023/07/24 10:53:16;;;;;;;4.20;3.30;;;31.30;64.00;;;;;;5100315;28;20449;-62
2023/07/24 10:55:43;;;;;;;3.80;3.07;;;31.20;93.90;;;;;;5099726;28;20464;-57
2023/07/24 10:58:11;;;;;;;3.73;2.90;;;31.10;63.30;;;;;;5093270;28;20538;-60
2023/07/24 11:00:40;;;;;;;4.60;3.20;;;31.00;89.50;;;;;;5093754;28;20500;-61
2023/07/24 11:03:09;;;;;;;5.00;3.30;;;30.90;63.10;;;;;;5094386;28;20472;-60
2023/07/24 11:05:40;;;;;;;3.53;2.87;;;30.50;90.10;;;;;;5096935;28;20473;-62
2023/07/24 11:08:15;;;;;;;6.73;3.30;;;30.70;94.10;;;;;;5108571;28;20421;-54
2023/07/24 11:10:46;;;;;;;5.50;3.30;;;30.50;77.40;;;;;;5096942;28;20417;-60
2023/07/24 11:13:13;;;;;;;3.07;2.60;;;30.30;94.80;;;;;;5088508;28;20454;-62
2023/07/24 11:15:40;;;;;;;4.17;3.23;;;;;;;;;;5092593;28;20446;-60
2023/07/24 11:18:08;;;;;;;4.37;3.50;;;;;;;;;;5086904;28;20482;-60
2023/07/24 11:20:39;;;;;;;7.17;3.53;;;30.50;94.80;;;;;;5083459;28;20954;-60
2023/07/24 11:23:06;;;;;;;8.20;3.47;;;30.00;95.50;;;;;;5082475;28;20434;-58
2023/07/24 11:25:33;;;;;;;3.70;3.07;;;30.60;95.90;;;;;;5084430;28;21017;-60
2023/07/24 11:28:04;;;;;;;6.23;3.60;;;30.40;96.70;;;;;;5098537;28;20442;-61
2023/07/24 11:30:31;;;;;;;5.50;3.50;;;30.40;96.60;;;;;;5109666;28;20433;-59
2023/07/24 11:33:00;;;;;;;8.17;3.33;;;30.50;92.90;;;;;;5112435;28;20456;-57
2023/07/24 11:35:27;;;;;;;4.10;3.30;;;29.70;91.90;;;;;;5113461;28;20446;-59
2023/07/24 11:37:56;;;;;;;3.90;3.00;;;29.50;97.60;;;;;;5111676;28;20495;-63
2023/07/24 11:40:32;;;;;;;5.63;2.73;;;28.90;97.80;;;;;;5102329;28;20932;-59
2023/07/24 11:42:59;;;;;;;5.73;3.07;;;29.10;97.90;;;;;;5099559;28;20477;-62
2023/07/24 11:45:26;;;;;;;7.23;4.30;;;29.30;97.60;;;;;;5098862;28;20540;-60
2023/07/24 11:47:53;;;;;;;7.00;3.30;;;29.40;97.10;;;;;;5100860;28;20489;-60
2023/07/24 11:50:22;;;;;;;5.23;3.23;;;29.10;69.00;;;;;;5101562;28;20649;-62
2023/07/24 11:52:50;;;;;;;4.20;3.53;;;29.00;95.00;;;;;;5101216;28;20536;-60
2023/07/24 11:55:20;;;;;;;3.87;2.90;;;28.90;98.20;;;;;;5099764;28;20552;-61
2023/07/24 11:57:57;;;;;;;4.93;3.43;;;28.70;94.50;;;;;;5099718;28;20480;-61
2023/07/24 12:00:24;;;;;;;5.67;4.13;;;28.80;95.00;;;;;;5104922;28;20457;-61
2023/07/24 12:02:51;;;;;;;6.53;3.90;;;28.40;95.00;;;;;;5106067;28;20457;-60
2023/07/24 12:05:19;;;;;;;5.80;3.40;;;28.50;94.70;;;;;;5100645;28;20544;-62
2023/07/24 12:07:47;;;;;;;5.13;3.40;;;28.50;70.80;;;;;;5102374;28;20421;-61
2023/07/24 12:10:15;;;;;;;5.23;3.87;;;28.40;70.60;;;;;;5104989;28;20447;-61
2023/07/24 12:12:45;;;;;;;5.57;4.43;;;28.40;71.00;;;;;;5104485;28;20462;-60
2023/07/24 12:15:12;;;;;;;4.13;3.10;;;28.10;99.10;;;;;;5104074;28;20487;-60
2023/07/24 12:17:39;;;;;;;5.97;3.73;;;27.80;94.90;;;;;;5104474;28;20457;-60
2023/07/24 12:20:09;;;;;;;12.33;7.13;;;27.70;97.60;;;;;;5111545;28;20418;-58
2023/07/24 12:22:36;;;;;;;5.90;3.10;;;27.70;98.90;;;;;;5104315;28;20528;-59
2023/07/24 12:25:03;;;;;;;4.83;3.60;;;27.70;98.00;;;;;;5103813;28;20499;-61
2023/07/24 12:27:30;;;;;;;5.00;2.90;;;27.70;99.90;;;;;;5101530;28;20480;-60
2023/07/24 12:29:59;;;;;;;5.40;3.03;;;27.20;99.90;;;;;;5104413;28;20476;-60
2023/07/24 12:32:26;;;;;;;6.77;4.40;;;;;;;;;;5105161;28;20465;-59
2023/07/24 12:34:55;;;;;;;7.20;2.87;;;26.90;99.90;;;;;;5105814;28;20449;-61
2023/07/24 12:37:22;;;;;;;8.07;3.57;;;27.10;99.90;;;;;;5105818;28;20473;-58
2023/07/24 12:39:49;;;;;;;8.80;2.80;;;26.40;99.90;;;;;;5104330;28;20516;-60
2023/07/24 12:42:17;;;;;;;4.67;2.57;;;25.70;99.90;;;;;;5100997;28;20489;-59
2023/07/24 12:44:44;;;;;;;4.23;3.13;;;25.60;99.90;;;;;;5095807;28;20524;-59
2023/07/24 12:47:13;;;;;;;4.37;2.83;;;25.70;99.90;;;;;;5095428;28;20926;-61
2023/07/24 12:49:40;;;;;;;5.67;3.30;;;;;;;;;;5095466;28;20465;-57
2023/07/24 12:52:08;;;;;;;6.43;3.10;;;25.60;99.90;;;;;;5098358;28;20518;-60
2023/07/24 12:54:35;;;;;;;6.57;3.30;;;25.60;99.90;;;;;;5099633;28;20480;-59
2023/07/24 12:57:02;;;;;;;6.70;3.30;;;25.70;99.90;;;;;;5099794;28;20508;-59
2023/07/24 12:59:29;;;;;;;4.57;3.27;;;25.80;99.90;;;;;;5099354;28;20524;-61
2023/07/24 13:01:56;;;;;;;3.60;2.83;;;25.70;99.90;;;;;;5097515;28;20527;-59
2023/07/24 13:04:25;;;;;;;6.23;3.10;;;25.60;99.90;;;;;;5095397;28;20534;-56